sensor_id;sensor_type;location;lat;lon;timestamp;P1;durP1;ratioP1;P2;durP2;ratioP2
17997;SDS011;9124;48.144;17.098;2023-11-21T00:03:54;6.35;;;1.52;;
17997;SDS011;9124;48.144;17.098;2023-11-21T00:08:24;9.77;;;2.97;;
17997;SDS011;9124;48.144;17.098;2023-11-21T00:12:50;2.05;;;1.33;;
17997;SDS011;9124;48.144;17.098;2023-11-21T00:17:17;5.07;;;1.40;;
17997;SDS011;9124;48.144;17.098;2023-11-21T00:21:43;6.55;;;2.28;;
17997;SDS011;9124;48.144;17.098;2023-11-21T00:26:10;5.95;;;1.70;;
17997;SDS011;9124;48.144;17.098;2023-11-21T00:30:37;3.78;;;1.63;;
17997;SDS011;9124;48.144;17.098;2023-11-21T00:35:04;3.35;;;1.30;;
17997;SDS011;9124;48.144;17.098;2023-11-21T00:39:31;2.45;;;1.50;;
17997;SDS011;9124;48.144;17.098;2023-11-21T00:43:59;2.50;;;1.55;;
17997;SDS011;9124;48.144;17.098;2023-11-21T00:48:26;2.53;;;1.27;;
17997;SDS011;9124;48.144;17.098;2023-11-21T00:52:53;4.78;;;1.50;;
17997;SDS011;9124;48.144;17.098;2023-11-21T00:57:19;3.58;;;1.70;;
17997;SDS011;9124;48.144;17.098;2023-11-21T01:01:46;6.93;;;2.15;;
17997;SDS011;9124;48.144;17.098;2023-11-21T01:06:12;4.50;;;1.70;;
17997;SDS011;9124;48.144;17.098;2023-11-21T01:10:38;9.00;;;1.92;;
17997;SDS011;9124;48.144;17.098;2023-11-21T01:15:05;3.13;;;1.88;;
17997;SDS011;9124;48.144;17.098;2023-11-21T01:19:37;5.55;;;1.73;;
17997;SDS011;9124;48.144;17.098;2023-11-21T01:24:04;4.43;;;2.05;;
17997;SDS011;9124;48.144;17.098;2023-11-21T01:28:33;4.47;;;2.00;;
17997;SDS011;9124;48.144;17.098;2023-11-21T01:32:59;3.60;;;1.90;;
17997;SDS011;9124;48.144;17.098;2023-11-21T01:37:26;5.10;;;2.28;;
17997;SDS011;9124;48.144;17.098;2023-11-21T01:41:53;6.35;;;2.70;;
17997;SDS011;9124;48.144;17.098;2023-11-21T01:46:20;4.25;;;2.22;;
17997;SDS011;9124;48.144;17.098;2023-11-21T01:50:47;7.13;;;2.80;;
17997;SDS011;9124;48.144;17.098;2023-11-21T01:55:14;4.88;;;2.88;;
17997;SDS011;9124;48.144;17.098;2023-11-21T01:59:46;4.57;;;2.83;;
17997;SDS011;9124;48.144;17.098;2023-11-21T02:04:16;5.90;;;2.67;;
17997;SDS011;9124;48.144;17.098;2023-11-21T02:08:42;6.22;;;2.20;;
17997;SDS011;9124;48.144;17.098;2023-11-21T02:13:11;5.22;;;2.35;;
17997;SDS011;9124;48.144;17.098;2023-11-21T02:17:38;4.28;;;1.73;;
17997;SDS011;9124;48.144;17.098;2023-11-21T02:22:04;7.30;;;2.00;;
17997;SDS011;9124;48.144;17.098;2023-11-21T02:26:33;3.40;;;2.05;;
17997;SDS011;9124;48.144;17.098;2023-11-21T02:30:59;4.22;;;2.33;;
17997;SDS011;9124;48.144;17.098;2023-11-21T02:35:26;3.60;;;2.33;;
17997;SDS011;9124;48.144;17.098;2023-11-21T02:39:52;5.88;;;2.28;;
17997;SDS011;9124;48.144;17.098;2023-11-21T02:44:19;5.22;;;2.45;;
17997;SDS011;9124;48.144;17.098;2023-11-21T02:48:45;5.45;;;2.00;;
17997;SDS011;9124;48.144;17.098;2023-11-21T02:53:12;11.23;;;2.97;;
17997;SDS011;9124;48.144;17.098;2023-11-21T02:57:38;6.43;;;2.45;;
17997;SDS011;9124;48.144;17.098;2023-11-21T03:02:05;9.70;;;2.70;;
17997;SDS011;9124;48.144;17.098;2023-11-21T03:06:34;3.97;;;2.15;;
17997;SDS011;9124;48.144;17.098;2023-11-21T03:11:01;2.40;;;1.80;;
17997;SDS011;9124;48.144;17.098;2023-11-21T03:15:28;5.35;;;1.95;;
17997;SDS011;9124;48.144;17.098;2023-11-21T03:19:55;4.50;;;1.90;;
17997;SDS011;9124;48.144;17.098;2023-11-21T03:24:23;5.25;;;2.33;;
17997;SDS011;9124;48.144;17.098;2023-11-21T03:28:49;6.10;;;2.22;;
17997;SDS011;9124;48.144;17.098;2023-11-21T03:33:19;5.72;;;2.67;;
17997;SDS011;9124;48.144;17.098;2023-11-21T03:37:46;3.88;;;2.00;;
17997;SDS011;9124;48.144;17.098;2023-11-21T03:42:13;5.35;;;2.15;;
17997;SDS011;9124;48.144;17.098;2023-11-21T03:46:39;5.68;;;2.08;;
17997;SDS011;9124;48.144;17.098;2023-11-21T03:51:05;4.80;;;2.10;;
17997;SDS011;9124;48.144;17.098;2023-11-21T03:55:33;8.55;;;1.70;;
17997;SDS011;9124;48.144;17.098;2023-11-21T04:00:01;4.07;;;2.08;;
17997;SDS011;9124;48.144;17.098;2023-11-21T04:04:38;8.35;;;2.75;;
17997;SDS011;9124;48.144;17.098;2023-11-21T04:09:04;4.55;;;2.28;;
17997;SDS011;9124;48.144;17.098;2023-11-21T04:13:31;5.63;;;2.35;;
17997;SDS011;9124;48.144;17.098;2023-11-21T04:17:57;4.70;;;2.25;;
17997;SDS011;9124;48.144;17.098;2023-11-21T04:22:24;3.15;;;2.00;;
17997;SDS011;9124;48.144;17.098;2023-11-21T04:26:50;5.20;;;1.80;;
17997;SDS011;9124;48.144;17.098;2023-11-21T04:31:17;6.00;;;2.10;;
17997;SDS011;9124;48.144;17.098;2023-11-21T04:35:43;3.05;;;1.85;;
17997;SDS011;9124;48.144;17.098;2023-11-21T04:40:10;8.20;;;2.15;;
17997;SDS011;9124;48.144;17.098;2023-11-21T04:44:37;2.63;;;2.05;;
17997;SDS011;9124;48.144;17.098;2023-11-21T04:49:03;3.15;;;1.80;;
17997;SDS011;9124;48.144;17.098;2023-11-21T04:53:30;3.95;;;1.83;;
17997;SDS011;9124;48.144;17.098;2023-11-21T04:57:56;5.28;;;1.65;;
17997;SDS011;9124;48.144;17.098;2023-11-21T05:02:23;2.47;;;1.33;;
17997;SDS011;9124;48.144;17.098;2023-11-21T05:06:49;5.50;;;1.60;;
17997;SDS011;9124;48.144;17.098;2023-11-21T05:11:23;6.75;;;1.73;;
17997;SDS011;9124;48.144;17.098;2023-11-21T05:15:55;4.32;;;1.73;;
17997;SDS011;9124;48.144;17.098;2023-11-21T05:20:24;4.85;;;2.60;;
17997;SDS011;9124;48.144;17.098;2023-11-21T05:24:51;4.00;;;2.90;;
17997;SDS011;9124;48.144;17.098;2023-11-21T05:29:17;6.40;;;2.50;;
17997;SDS011;9124;48.144;17.098;2023-11-21T05:33:44;9.20;;;3.22;;
17997;SDS011;9124;48.144;17.098;2023-11-21T05:38:11;9.10;;;3.30;;
17997;SDS011;9124;48.144;17.098;2023-11-21T05:42:38;3.50;;;2.30;;
17997;SDS011;9124;48.144;17.098;2023-11-21T05:47:06;6.95;;;2.00;;
17997;SDS011;9124;48.144;17.098;2023-11-21T05:51:33;4.32;;;2.20;;
17997;SDS011;9124;48.144;17.098;2023-11-21T05:55:59;4.68;;;2.58;;
17997;SDS011;9124;48.144;17.098;2023-11-21T06:00:26;7.40;;;2.80;;
17997;SDS011;9124;48.144;17.098;2023-11-21T06:04:52;5.93;;;2.50;;
17997;SDS011;9124;48.144;17.098;2023-11-21T06:09:20;7.95;;;2.60;;
17997;SDS011;9124;48.144;17.098;2023-11-21T06:13:48;10.95;;;3.80;;
17997;SDS011;9124;48.144;17.098;2023-11-21T06:18:15;5.70;;;3.17;;
17997;SDS011;9124;48.144;17.098;2023-11-21T06:22:45;10.10;;;3.15;;
17997;SDS011;9124;48.144;17.098;2023-11-21T06:27:13;9.18;;;3.33;;
17997;SDS011;9124;48.144;17.098;2023-11-21T06:31:40;10.50;;;3.78;;
17997;SDS011;9124;48.144;17.098;2023-11-21T06:36:07;7.63;;;3.97;;
17997;SDS011;9124;48.144;17.098;2023-11-21T06:40:34;8.60;;;3.30;;
17997;SDS011;9124;48.144;17.098;2023-11-21T06:45:00;7.35;;;3.28;;
17997;SDS011;9124;48.144;17.098;2023-11-21T06:49:29;5.95;;;3.15;;
17997;SDS011;9124;48.144;17.098;2023-11-21T06:53:57;7.47;;;3.53;;
17997;SDS011;9124;48.144;17.098;2023-11-21T06:58:23;6.20;;;3.05;;
17997;SDS011;9124;48.144;17.098;2023-11-21T07:02:50;5.72;;;3.10;;
17997;SDS011;9124;48.144;17.098;2023-11-21T07:07:17;6.13;;;3.60;;
17997;SDS011;9124;48.144;17.098;2023-11-21T07:11:45;3.45;;;2.78;;
17997;SDS011;9124;48.144;17.098;2023-11-21T07:16:11;4.10;;;2.15;;
17997;SDS011;9124;48.144;17.098;2023-11-21T07:20:38;5.85;;;2.30;;
17997;SDS011;9124;48.144;17.098;2023-11-21T07:25:04;7.63;;;1.88;;
17997;SDS011;9124;48.144;17.098;2023-11-21T07:29:32;3.40;;;2.00;;
17997;SDS011;9124;48.144;17.098;2023-11-21T07:34:00;10.10;;;2.25;;
17997;SDS011;9124;48.144;17.098;2023-11-21T07:38:26;5.95;;;2.97;;
17997;SDS011;9124;48.144;17.098;2023-11-21T07:42:54;4.65;;;2.08;;
17997;SDS011;9124;48.144;17.098;2023-11-21T07:47:23;3.92;;;1.52;;
17997;SDS011;9124;48.144;17.098;2023-11-21T07:51:53;5.05;;;1.95;;
17997;SDS011;9124;48.144;17.098;2023-11-21T07:56:19;8.48;;;1.80;;
17997;SDS011;9124;48.144;17.098;2023-11-21T08:00:46;5.85;;;1.50;;
17997;SDS011;9124;48.144;17.098;2023-11-21T08:05:12;4.20;;;1.90;;
17997;SDS011;9124;48.144;17.098;2023-11-21T08:09:39;2.90;;;1.75;;
17997;SDS011;9124;48.144;17.098;2023-11-21T08:14:05;2.92;;;1.67;;
17997;SDS011;9124;48.144;17.098;2023-11-21T08:18:32;5.13;;;1.60;;
17997;SDS011;9124;48.144;17.098;2023-11-21T08:22:59;5.05;;;1.95;;
17997;SDS011;9124;48.144;17.098;2023-11-21T08:27:29;3.70;;;2.13;;
17997;SDS011;9124;48.144;17.098;2023-11-21T08:31:55;9.63;;;2.08;;
17997;SDS011;9124;48.144;17.098;2023-11-21T08:36:23;3.35;;;1.80;;
17997;SDS011;9124;48.144;17.098;2023-11-21T08:40:50;3.03;;;2.00;;
17997;SDS011;9124;48.144;17.098;2023-11-21T08:45:17;5.38;;;2.67;;
17997;SDS011;9124;48.144;17.098;2023-11-21T08:49:43;5.97;;;2.75;;
17997;SDS011;9124;48.144;17.098;2023-11-21T08:54:09;6.45;;;3.03;;
17997;SDS011;9124;48.144;17.098;2023-11-21T08:58:37;4.75;;;2.60;;
17997;SDS011;9124;48.144;17.098;2023-11-21T09:03:04;6.00;;;2.72;;
17997;SDS011;9124;48.144;17.098;2023-11-21T09:07:34;5.05;;;3.15;;
17997;SDS011;9124;48.144;17.098;2023-11-21T09:12:02;6.78;;;3.17;;
17997;SDS011;9124;48.144;17.098;2023-11-21T09:16:28;6.68;;;2.70;;
17997;SDS011;9124;48.144;17.098;2023-11-21T09:20:55;7.25;;;2.88;;
17997;SDS011;9124;48.144;17.098;2023-11-21T09:25:21;4.57;;;2.50;;
17997;SDS011;9124;48.144;17.098;2023-11-21T09:29:48;6.38;;;3.05;;
17997;SDS011;9124;48.144;17.098;2023-11-21T09:34:14;5.60;;;3.28;;
17997;SDS011;9124;48.144;17.098;2023-11-21T09:38:41;11.65;;;3.58;;
17997;SDS011;9124;48.144;17.098;2023-11-21T09:43:09;9.15;;;3.55;;
17997;SDS011;9124;48.144;17.098;2023-11-21T09:47:43;8.63;;;3.38;;
17997;SDS011;9124;48.144;17.098;2023-11-21T09:52:11;5.88;;;2.70;;
17997;SDS011;9124;48.144;17.098;2023-11-21T09:56:49;10.73;;;2.92;;
17997;SDS011;9124;48.144;17.098;2023-11-21T10:01:15;6.07;;;3.22;;
17997;SDS011;9124;48.144;17.098;2023-11-21T10:05:44;7.40;;;2.75;;
17997;SDS011;9124;48.144;17.098;2023-11-21T10:10:11;7.55;;;2.95;;
17997;SDS011;9124;48.144;17.098;2023-11-21T10:14:40;6.13;;;3.22;;
17997;SDS011;9124;48.144;17.098;2023-11-21T10:19:12;4.78;;;3.15;;
17997;SDS011;9124;48.144;17.098;2023-11-21T10:23:43;10.77;;;3.38;;
17997;SDS011;9124;48.144;17.098;2023-11-21T10:28:10;6.78;;;2.90;;
17997;SDS011;9124;48.144;17.098;2023-11-21T10:32:36;6.03;;;3.13;;
17997;SDS011;9124;48.144;17.098;2023-11-21T10:37:10;6.53;;;3.20;;
17997;SDS011;9124;48.144;17.098;2023-11-21T10:41:37;4.25;;;2.70;;
17997;SDS011;9124;48.144;17.098;2023-11-21T10:46:06;6.88;;;3.05;;
17997;SDS011;9124;48.144;17.098;2023-11-21T10:50:33;4.53;;;2.50;;
17997;SDS011;9124;48.144;17.098;2023-11-21T10:55:01;2.55;;;2.17;;
17997;SDS011;9124;48.144;17.098;2023-11-21T10:59:31;4.53;;;2.03;;
17997;SDS011;9124;48.144;17.098;2023-11-21T11:03:58;4.03;;;2.15;;
17997;SDS011;9124;48.144;17.098;2023-11-21T11:08:25;4.13;;;1.70;;
17997;SDS011;9124;48.144;17.098;2023-11-21T11:12:54;3.33;;;2.03;;
17997;SDS011;9124;48.144;17.098;2023-11-21T11:17:21;4.32;;;1.88;;
17997;SDS011;9124;48.144;17.098;2023-11-21T11:31:04;3.33;;;2.17;;
17997;SDS011;9124;48.144;17.098;2023-11-21T11:40:40;4.35;;;2.13;;
17997;SDS011;9124;48.144;17.098;2023-11-21T11:45:17;5.45;;;2.45;;
17997;SDS011;9124;48.144;17.098;2023-11-21T11:49:58;6.22;;;2.40;;
17997;SDS011;9124;48.144;17.098;2023-11-21T11:54:37;3.47;;;1.92;;
17997;SDS011;9124;48.144;17.098;2023-11-21T11:59:04;8.38;;;1.88;;
17997;SDS011;9124;48.144;17.098;2023-11-21T12:03:32;5.18;;;1.75;;
17997;SDS011;9124;48.144;17.098;2023-11-21T12:08:03;5.95;;;1.60;;
17997;SDS011;9124;48.144;17.098;2023-11-21T12:12:31;6.18;;;1.50;;
17997;SDS011;9124;48.144;17.098;2023-11-21T12:16:59;5.55;;;1.70;;
17997;SDS011;9124;48.144;17.098;2023-11-21T12:21:26;2.95;;;1.55;;
17997;SDS011;9124;48.144;17.098;2023-11-21T12:25:54;3.03;;;1.58;;
17997;SDS011;9124;48.144;17.098;2023-11-21T12:30:21;2.30;;;1.23;;
17997;SDS011;9124;48.144;17.098;2023-11-21T12:34:49;5.25;;;1.92;;
17997;SDS011;9124;48.144;17.098;2023-11-21T12:39:16;1.83;;;1.30;;
17997;SDS011;9124;48.144;17.098;2023-11-21T12:43:43;3.20;;;1.38;;
17997;SDS011;9124;48.144;17.098;2023-11-21T12:48:09;4.10;;;1.55;;
17997;SDS011;9124;48.144;17.098;2023-11-21T12:52:37;3.42;;;2.03;;
17997;SDS011;9124;48.144;17.098;2023-11-21T12:57:05;3.40;;;1.73;;
17997;SDS011;9124;48.144;17.098;2023-11-21T13:01:34;6.53;;;2.20;;
17997;SDS011;9124;48.144;17.098;2023-11-21T13:06:02;4.53;;;1.95;;
17997;SDS011;9124;48.144;17.098;2023-11-21T13:10:31;3.03;;;1.70;;
17997;SDS011;9124;48.144;17.098;2023-11-21T13:15:03;4.15;;;1.92;;
17997;SDS011;9124;48.144;17.098;2023-11-21T13:19:32;4.60;;;2.00;;
17997;SDS011;9124;48.144;17.098;2023-11-21T13:23:59;7.18;;;2.63;;
17997;SDS011;9124;48.144;17.098;2023-11-21T13:28:25;6.90;;;2.30;;
17997;SDS011;9124;48.144;17.098;2023-11-21T13:32:57;4.47;;;1.95;;
17997;SDS011;9124;48.144;17.098;2023-11-21T13:37:27;7.00;;;2.85;;
17997;SDS011;9124;48.144;17.098;2023-11-21T13:41:57;3.78;;;2.17;;
17997;SDS011;9124;48.144;17.098;2023-11-21T13:46:23;6.63;;;2.42;;
17997;SDS011;9124;48.144;17.098;2023-11-21T13:50:49;8.55;;;2.67;;
17997;SDS011;9124;48.144;17.098;2023-11-21T13:55:24;8.20;;;2.75;;
17997;SDS011;9124;48.144;17.098;2023-11-21T13:59:51;4.47;;;2.85;;
17997;SDS011;9124;48.144;17.098;2023-11-21T14:04:17;7.88;;;3.00;;
17997;SDS011;9124;48.144;17.098;2023-11-21T14:08:44;5.78;;;3.08;;
17997;SDS011;9124;48.144;17.098;2023-11-21T14:13:10;8.15;;;2.50;;
17997;SDS011;9124;48.144;17.098;2023-11-21T14:17:38;4.55;;;2.75;;
17997;SDS011;9124;48.144;17.098;2023-11-21T14:22:06;5.93;;;2.85;;
17997;SDS011;9124;48.144;17.098;2023-11-21T14:26:35;6.25;;;3.40;;
17997;SDS011;9124;48.144;17.098;2023-11-21T14:31:01;5.47;;;3.55;;
17997;SDS011;9124;48.144;17.098;2023-11-21T14:35:29;5.78;;;3.15;;
17997;SDS011;9124;48.144;17.098;2023-11-21T14:39:58;6.85;;;2.95;;
17997;SDS011;9124;48.144;17.098;2023-11-21T14:44:25;6.15;;;2.95;;
17997;SDS011;9124;48.144;17.098;2023-11-21T14:48:58;4.53;;;2.53;;
17997;SDS011;9124;48.144;17.098;2023-11-21T14:53:27;4.72;;;2.40;;
17997;SDS011;9124;48.144;17.098;2023-11-21T14:58:19;5.40;;;2.33;;
17997;SDS011;9124;48.144;17.098;2023-11-21T15:02:52;5.60;;;2.70;;
17997;SDS011;9124;48.144;17.098;2023-11-21T15:07:19;10.68;;;2.53;;
17997;SDS011;9124;48.144;17.098;2023-11-21T15:11:45;2.75;;;2.42;;
17997;SDS011;9124;48.144;17.098;2023-11-21T15:16:13;5.43;;;2.08;;
17997;SDS011;9124;48.144;17.098;2023-11-21T15:20:40;8.77;;;2.67;;
17997;SDS011;9124;48.144;17.098;2023-11-21T15:25:07;5.97;;;2.75;;
17997;SDS011;9124;48.144;17.098;2023-11-21T15:29:36;5.53;;;2.47;;
17997;SDS011;9124;48.144;17.098;2023-11-21T15:34:04;2.78;;;2.45;;
17997;SDS011;9124;48.144;17.098;2023-11-21T15:38:31;5.18;;;2.63;;
17997;SDS011;9124;48.144;17.098;2023-11-21T15:42:58;8.10;;;3.00;;
17997;SDS011;9124;48.144;17.098;2023-11-21T15:47:25;3.15;;;2.70;;
17997;SDS011;9124;48.144;17.098;2023-11-21T15:51:52;8.07;;;3.38;;
17997;SDS011;9124;48.144;17.098;2023-11-21T15:56:19;6.60;;;4.03;;
17997;SDS011;9124;48.144;17.098;2023-11-21T16:00:45;12.05;;;4.85;;
17997;SDS011;9124;48.144;17.098;2023-11-21T16:05:12;5.80;;;4.22;;
17997;SDS011;9124;48.144;17.098;2023-11-21T16:09:42;9.40;;;5.45;;
17997;SDS011;9124;48.144;17.098;2023-11-21T16:14:09;12.45;;;4.88;;
17997;SDS011;9124;48.144;17.098;2023-11-21T16:18:35;5.30;;;4.65;;
17997;SDS011;9124;48.144;17.098;2023-11-21T16:23:02;6.95;;;4.63;;
17997;SDS011;9124;48.144;17.098;2023-11-21T16:27:29;12.45;;;4.78;;
17997;SDS011;9124;48.144;17.098;2023-11-21T16:31:55;5.85;;;4.47;;
17997;SDS011;9124;48.144;17.098;2023-11-21T16:36:22;8.15;;;4.70;;
17997;SDS011;9124;48.144;17.098;2023-11-21T16:40:48;10.15;;;4.97;;
17997;SDS011;9124;48.144;17.098;2023-11-21T16:45:15;9.55;;;4.20;;
17997;SDS011;9124;48.144;17.098;2023-11-21T16:49:41;9.48;;;6.05;;
17997;SDS011;9124;48.144;17.098;2023-11-21T16:54:10;12.30;;;7.85;;
17997;SDS011;9124;48.144;17.098;2023-11-21T16:58:36;13.57;;;9.10;;
17997;SDS011;9124;48.144;17.098;2023-11-21T17:03:03;6.20;;;5.60;;
17997;SDS011;9124;48.144;17.098;2023-11-21T17:07:31;6.18;;;5.50;;
17997;SDS011;9124;48.144;17.098;2023-11-21T17:11:58;3.95;;;3.65;;
17997;SDS011;9124;48.144;17.098;2023-11-21T17:16:26;8.52;;;4.57;;
17997;SDS011;9124;48.144;17.098;2023-11-21T17:20:53;7.70;;;4.63;;
17997;SDS011;9124;48.144;17.098;2023-11-21T17:25:20;7.25;;;4.63;;
17997;SDS011;9124;48.144;17.098;2023-11-21T17:29:47;9.00;;;3.50;;
17997;SDS011;9124;48.144;17.098;2023-11-21T17:34:13;4.88;;;4.13;;
17997;SDS011;9124;48.144;17.098;2023-11-21T17:38:44;5.45;;;4.93;;
17997;SDS011;9124;48.144;17.098;2023-11-21T17:43:11;10.82;;;5.22;;
17997;SDS011;9124;48.144;17.098;2023-11-21T17:47:38;6.22;;;4.85;;
17997;SDS011;9124;48.144;17.098;2023-11-21T17:52:05;6.40;;;5.07;;
17997;SDS011;9124;48.144;17.098;2023-11-21T17:56:31;5.72;;;4.70;;
17997;SDS011;9124;48.144;17.098;2023-11-21T18:00:58;6.40;;;5.20;;
17997;SDS011;9124;48.144;17.098;2023-11-21T18:05:24;6.18;;;5.07;;
17997;SDS011;9124;48.144;17.098;2023-11-21T18:09:51;6.30;;;5.60;;
17997;SDS011;9124;48.144;17.098;2023-11-21T18:14:18;6.40;;;5.57;;
17997;SDS011;9124;48.144;17.098;2023-11-21T18:18:44;6.40;;;5.65;;
17997;SDS011;9124;48.144;17.098;2023-11-21T18:23:11;7.30;;;5.97;;
17997;SDS011;9124;48.144;17.098;2023-11-21T18:27:37;7.60;;;5.55;;
17997;SDS011;9124;48.144;17.098;2023-11-21T18:32:04;8.50;;;6.03;;
17997;SDS011;9124;48.144;17.098;2023-11-21T18:36:35;6.88;;;6.28;;
17997;SDS011;9124;48.144;17.098;2023-11-21T18:41:01;7.82;;;5.90;;
17997;SDS011;9124;48.144;17.098;2023-11-21T18:45:28;10.77;;;6.68;;
17997;SDS011;9124;48.144;17.098;2023-11-21T18:49:54;6.57;;;5.97;;
17997;SDS011;9124;48.144;17.098;2023-11-21T18:54:21;6.57;;;5.93;;
17997;SDS011;9124;48.144;17.098;2023-11-21T18:58:47;5.50;;;4.97;;
17997;SDS011;9124;48.144;17.098;2023-11-21T19:03:14;7.38;;;4.90;;
17997;SDS011;9124;48.144;17.098;2023-11-21T19:07:41;5.45;;;4.95;;
17997;SDS011;9124;48.144;17.098;2023-11-21T19:12:07;5.47;;;4.70;;
17997;SDS011;9124;48.144;17.098;2023-11-21T19:16:36;6.75;;;4.57;;
17997;SDS011;9124;48.144;17.098;2023-11-21T19:21:03;5.30;;;4.90;;
17997;SDS011;9124;48.144;17.098;2023-11-21T19:25:29;5.63;;;4.72;;
17997;SDS011;9124;48.144;17.098;2023-11-21T19:29:58;5.75;;;5.00;;
17997;SDS011;9124;48.144;17.098;2023-11-21T19:34:24;6.28;;;5.68;;
17997;SDS011;9124;48.144;17.098;2023-11-21T19:38:51;8.35;;;5.97;;
17997;SDS011;9124;48.144;17.098;2023-11-21T19:43:17;6.55;;;5.80;;
17997;SDS011;9124;48.144;17.098;2023-11-21T19:47:44;8.05;;;5.50;;
17997;SDS011;9124;48.144;17.098;2023-11-21T19:52:10;6.28;;;5.78;;
17997;SDS011;9124;48.144;17.098;2023-11-21T19:56:38;8.32;;;5.95;;
17997;SDS011;9124;48.144;17.098;2023-11-21T20:01:04;7.93;;;6.63;;
17997;SDS011;9124;48.144;17.098;2023-11-21T20:05:31;10.55;;;6.47;;
17997;SDS011;9124;48.144;17.098;2023-11-21T20:09:59;7.38;;;6.22;;
17997;SDS011;9124;48.144;17.098;2023-11-21T20:14:25;8.15;;;6.60;;
17997;SDS011;9124;48.144;17.098;2023-11-21T20:18:55;11.38;;;6.72;;
17997;SDS011;9124;48.144;17.098;2023-11-21T20:23:21;11.27;;;7.50;;
17997;SDS011;9124;48.144;17.098;2023-11-21T20:27:47;9.25;;;7.38;;
17997;SDS011;9124;48.144;17.098;2023-11-21T20:32:14;11.75;;;7.13;;
17997;SDS011;9124;48.144;17.098;2023-11-21T20:36:51;9.00;;;8.20;;
17997;SDS011;9124;48.144;17.098;2023-11-21T20:41:17;8.45;;;7.85;;
17997;SDS011;9124;48.144;17.098;2023-11-21T20:45:44;10.07;;;7.82;;
17997;SDS011;9124;48.144;17.098;2023-11-21T20:50:10;9.68;;;8.73;;
17997;SDS011;9124;48.144;17.098;2023-11-21T20:54:37;10.23;;;9.20;;
17997;SDS011;9124;48.144;17.098;2023-11-21T20:59:04;10.93;;;9.80;;
17997;SDS011;9124;48.144;17.098;2023-11-21T21:03:33;12.13;;;11.07;;
17997;SDS011;9124;48.144;17.098;2023-11-21T21:08:00;12.60;;;11.45;;
17997;SDS011;9124;48.144;17.098;2023-11-21T21:12:27;13.88;;;12.48;;
17997;SDS011;9124;48.144;17.098;2023-11-21T21:16:54;15.77;;;13.30;;
17997;SDS011;9124;48.144;17.098;2023-11-21T21:21:23;16.20;;;14.50;;
17997;SDS011;9124;48.144;17.098;2023-11-21T21:25:49;18.33;;;15.60;;
17997;SDS011;9124;48.144;17.098;2023-11-21T21:30:18;22.70;;;18.90;;
17997;SDS011;9124;48.144;17.098;2023-11-21T21:34:45;24.70;;;19.33;;
17997;SDS011;9124;48.144;17.098;2023-11-21T21:39:11;48.58;;;32.20;;
17997;SDS011;9124;48.144;17.098;2023-11-21T21:43:39;46.88;;;34.28;;
17997;SDS011;9124;48.144;17.098;2023-11-21T21:48:05;39.40;;;28.23;;
17997;SDS011;9124;48.144;17.098;2023-11-21T21:52:34;28.10;;;23.23;;
17997;SDS011;9124;48.144;17.098;2023-11-21T21:57:01;27.77;;;21.52;;
17997;SDS011;9124;48.144;17.098;2023-11-21T22:01:28;32.13;;;23.02;;
17997;SDS011;9124;48.144;17.098;2023-11-21T22:05:56;33.22;;;24.45;;
17997;SDS011;9124;48.144;17.098;2023-11-21T22:10:23;33.00;;;23.88;;
17997;SDS011;9124;48.144;17.098;2023-11-21T22:14:49;27.25;;;21.35;;
17997;SDS011;9124;48.144;17.098;2023-11-21T22:19:16;29.95;;;23.10;;
17997;SDS011;9124;48.144;17.098;2023-11-21T22:23:44;35.72;;;24.35;;
17997;SDS011;9124;48.144;17.098;2023-11-21T22:28:10;31.98;;;25.77;;
17997;SDS011;9124;48.144;17.098;2023-11-21T22:32:36;33.75;;;24.52;;
17997;SDS011;9124;48.144;17.098;2023-11-21T22:37:03;32.88;;;24.80;;
17997;SDS011;9124;48.144;17.098;2023-11-21T22:41:30;37.40;;;26.38;;
17997;SDS011;9124;48.144;17.098;2023-11-21T22:45:57;36.20;;;25.80;;
17997;SDS011;9124;48.144;17.098;2023-11-21T22:50:23;38.47;;;25.00;;
17997;SDS011;9124;48.144;17.098;2023-11-21T22:54:49;39.58;;;23.05;;
17997;SDS011;9124;48.144;17.098;2023-11-21T22:59:16;42.65;;;23.65;;
17997;SDS011;9124;48.144;17.098;2023-11-21T23:03:44;33.75;;;22.02;;
17997;SDS011;9124;48.144;17.098;2023-11-21T23:08:11;38.85;;;19.80;;
17997;SDS011;9124;48.144;17.098;2023-11-21T23:12:38;34.78;;;20.15;;
17997;SDS011;9124;48.144;17.098;2023-11-21T23:17:04;36.00;;;20.33;;
17997;SDS011;9124;48.144;17.098;2023-11-21T23:21:31;30.58;;;20.25;;
17997;SDS011;9124;48.144;17.098;2023-11-21T23:26:00;31.58;;;19.13;;
17997;SDS011;9124;48.144;17.098;2023-11-21T23:30:26;28.65;;;17.90;;
17997;SDS011;9124;48.144;17.098;2023-11-21T23:34:55;27.35;;;18.80;;
17997;SDS011;9124;48.144;17.098;2023-11-21T23:39:21;32.35;;;19.88;;
17997;SDS011;9124;48.144;17.098;2023-11-21T23:43:48;30.83;;;17.02;;
17997;SDS011;9124;48.144;17.098;2023-11-21T23:48:15;33.65;;;19.05;;
17997;SDS011;9124;48.144;17.098;2023-11-21T23:52:41;30.13;;;17.80;;
17997;SDS011;9124;48.144;17.098;2023-11-21T23:57:07;28.77;;;17.77;;
